Time;durP1;ratioP1;P1;durP2;ratioP2;P2;SDS_P1;SDS_P2;PMS_P1;PMS_P2;Temp;Humidity;BMP_temperature;BMP_pressure;BME280_temperature;BME280_humidity;BME280_pressure;Samples;Min_cycle;Max_cycle;Signal;HPM_P1;HPM_P2
2023/06/18 00:00:39;;;;;;;27.48;22.35;;;15.20;99.90;;;;;;4958277;28;20124;-87
2023/06/18 00:03:05;;;;;;;30.83;25.45;;;15.20;99.90;;;;;;4946296;28;20458;-87
2023/06/18 00:05:32;;;;;;;29.10;22.67;;;15.20;99.90;;;;;;4946696;28;20491;-87
2023/06/18 00:07:58;;;;;;;30.15;24.90;;;15.20;99.90;;;;;;4956925;28;20132;-87
2023/06/18 00:10:23;;;;;;;24.33;19.50;;;15.20;99.90;;;;;;4955830;28;20042;-86
2023/06/18 00:12:49;;;;;;;24.50;19.05;;;15.20;99.90;;;;;;4956228;28;20529;-85
2023/06/18 00:15:15;;;;;;;23.02;17.77;;;15.10;99.90;;;;;;4939554;28;20509;-86
2023/06/18 00:17:41;;;;;;;18.10;15.75;;;15.10;99.90;;;;;;4937642;28;20050;-86
2023/06/18 00:20:07;;;;;;;26.75;23.80;;;15.10;99.90;;;;;;4953045;28;20050;-86
2023/06/18 00:22:38;;;;;;;17.13;15.32;;;15.00;99.90;;;;;;4953882;28;20043;-86
2023/06/18 00:25:05;;;;;;;17.65;15.80;;;15.00;99.90;;;;;;4942460;28;20057;-86
2023/06/18 00:27:31;;;;;;;16.08;13.60;;;15.00;99.90;;;;;;4956247;28;20042;-86
2023/06/18 00:29:57;;;;;;;18.83;15.90;;;14.90;99.90;;;;;;4972206;28;20042;-86
2023/06/18 00:32:23;;;;;;;21.83;19.25;;;14.80;99.90;;;;;;4944603;28;20042;-87
2023/06/18 00:34:53;;;;;;;22.98;19.67;;;14.80;99.90;;;;;;4943374;28;20042;-87
2023/06/18 00:37:20;;;;;;;22.30;19.42;;;14.80;99.90;;;;;;4956623;28;20078;-86
2023/06/18 00:39:46;;;;;;;21.33;16.73;;;14.80;99.90;;;;;;4935858;28;20061;-86
2023/06/18 00:42:12;;;;;;;27.80;22.38;;;14.70;99.90;;;;;;4950173;28;20414;-85
2023/06/18 00:44:45;;;;;;;31.90;23.02;;;14.70;99.90;;;;;;4955839;28;20485;-87
2023/06/18 00:47:12;;;;;;;30.17;23.58;;;14.60;99.90;;;;;;4959751;28;20039;-86
2023/06/18 00:49:40;;;;;;;34.53;25.15;;;14.60;99.90;;;;;;4949209;28;20038;-87
2023/06/18 00:52:08;;;;;;;29.23;23.88;;;14.60;99.90;;;;;;4938389;28;20038;-86
2023/06/18 00:54:35;;;;;;;29.85;24.60;;;14.50;99.90;;;;;;4947669;28;20139;-87
2023/06/18 00:57:03;;;;;;;31.60;25.65;;;14.50;99.90;;;;;;4936908;28;20039;-86
2023/06/18 00:59:29;;;;;;;33.60;25.08;;;14.40;99.90;;;;;;4953190;28;20185;-86
2023/06/18 01:01:56;;;;;;;32.10;25.65;;;14.40;99.90;;;;;;4937965;28;20046;-87
2023/06/18 01:04:26;;;;;;;28.58;23.17;;;14.40;99.90;;;;;;4951305;28;20053;-85
2023/06/18 01:06:53;;;;;;;25.27;20.50;;;14.50;99.90;;;;;;4955471;28;20101;-87
2023/06/18 01:09:21;;;;;;;24.30;20.63;;;14.50;99.90;;;;;;4946496;28;20038;-86
2023/06/18 01:11:51;;;;;;;22.95;20.55;;;14.50;99.90;;;;;;4955263;28;20148;-86
2023/06/18 01:14:19;;;;;;;20.58;18.35;;;14.50;99.90;;;;;;4956411;28;20038;-86
2023/06/18 01:16:46;;;;;;;29.02;23.90;;;14.40;99.90;;;;;;4938159;28;20061;-86
2023/06/18 01:19:27;;;;;;;29.17;22.48;;;14.50;99.90;;;;;;4937830;28;20047;-87
2023/06/18 01:22:01;;;;;;;24.92;21.85;;;14.50;99.90;;;;;;4964684;28;20046;-86
2023/06/18 01:24:32;;;;;;;24.45;21.20;;;14.50;99.90;;;;;;4948815;28;20049;-86
2023/06/18 01:26:58;;;;;;;24.30;20.52;;;14.50;99.90;;;;;;4947737;28;20124;-87
2023/06/18 01:29:27;;;;;;;24.13;20.65;;;14.50;99.90;;;;;;4937624;28;20097;-87
2023/06/18 01:31:53;;;;;;;25.70;20.88;;;14.50;99.90;;;;;;4938600;28;20189;-88
2023/06/18 01:34:20;;;;;;;26.90;22.25;;;14.40;99.90;;;;;;4948729;28;20046;-87
2023/06/18 01:36:49;;;;;;;28.65;23.05;;;14.40;99.90;;;;;;4943763;28;20046;-87
2023/06/18 01:39:35;;;;;;;32.28;25.55;;;14.40;99.90;;;;;;4953318;28;20093;-86
2023/06/18 01:42:13;;;;;;;32.22;26.20;;;14.40;99.90;;;;;;4948185;28;20034;-87
2023/06/18 01:44:43;;;;;;;30.58;24.92;;;14.40;99.90;;;;;;4947271;28;20509;-87
2023/06/18 01:47:13;;;;;;;32.58;25.30;;;14.40;99.90;;;;;;4936843;28;20081;-85
2023/06/18 01:49:40;;;;;;;32.72;25.60;;;14.40;99.90;;;;;;4970589;28;20046;-87
2023/06/18 01:52:07;;;;;;;31.95;24.17;;;14.40;99.90;;;;;;4954297;28;20050;-86
2023/06/18 01:54:33;;;;;;;30.23;23.67;;;14.40;99.90;;;;;;4939534;28;20046;-88
2023/06/18 01:57:00;;;;;;;26.15;21.83;;;14.40;99.90;;;;;;4951020;28;20376;-86
2023/06/18 01:59:26;;;;;;;26.73;22.33;;;14.40;99.90;;;;;;4947726;28;20066;-87
2023/06/18 02:01:52;;;;;;;29.63;24.60;;;14.40;99.90;;;;;;4937209;28;20479;-87
2023/06/18 02:04:17;;;;;;;32.13;26.40;;;14.30;99.90;;;;;;4936998;28;20058;-87
2023/06/18 02:06:43;;;;;;;35.10;27.55;;;14.30;99.90;;;;;;4938396;28;20057;-88
2023/06/18 02:09:09;;;;;;;35.58;27.27;;;14.30;99.90;;;;;;4955751;28;20042;-88
2023/06/18 02:11:35;;;;;;;27.55;22.70;;;14.30;99.90;;;;;;4958867;28;20055;-88
2023/06/18 02:14:01;;;;;;;37.03;28.55;;;14.30;99.90;;;;;;4955208;28;20449;-87
2023/06/18 02:16:26;;;;;;;38.75;29.42;;;14.20;99.90;;;;;;4959426;28;20050;-88
2023/06/18 02:18:52;;;;;;;40.92;29.50;;;14.20;99.90;;;;;;4947069;28;20121;-88
2023/06/18 02:21:17;;;;;;;33.03;27.48;;;14.20;99.90;;;;;;4950700;28;20053;-87
2023/06/18 02:23:43;;;;;;;55.17;29.05;;;14.10;99.90;;;;;;4971375;28;20109;-88
2023/06/18 02:26:09;;;;;;;371.20;34.70;;;14.20;99.90;;;;;;4953272;28;20101;-88
2023/06/18 02:28:35;;;;;;;481.98;40.03;;;14.20;99.90;;;;;;4944275;28;20054;-88
2023/06/18 02:31:01;;;;;;;413.77;34.83;;;14.30;99.90;;;;;;4940781;28;20509;-87
2023/06/18 02:33:27;;;;;;;331.20;27.60;;;14.40;99.90;;;;;;4943309;28;20446;-87
2023/06/18 02:35:53;;;;;;;411.73;29.70;;;14.30;99.90;;;;;;4941080;28;20049;-86
2023/06/18 02:38:20;;;;;;;186.23;26.25;;;14.30;99.90;;;;;;4943583;28;20046;-87
2023/06/18 02:40:46;;;;;;;268.45;27.08;;;14.40;99.90;;;;;;4952394;28;20144;-87
2023/06/18 02:43:12;;;;;;;294.98;26.10;;;14.40;99.90;;;;;;4944111;28;20487;-87
2023/06/18 02:45:38;;;;;;;277.02;27.38;;;14.30;99.90;;;;;;4954173;28;20100;-87
2023/06/18 02:48:04;;;;;;;146.75;23.60;;;14.40;99.90;;;;;;4948153;28;20129;-87
2023/06/18 02:50:30;;;;;;;438.52;34.58;;;14.40;99.90;;;;;;4951933;28;20402;-86
2023/06/18 02:52:55;;;;;;;158.27;24.60;;;14.50;99.90;;;;;;4940483;28;20051;-87
2023/06/18 02:55:22;;;;;;;105.15;24.42;;;14.40;99.90;;;;;;4951319;28;20584;-87
2023/06/18 02:57:48;;;;;;;78.60;23.70;;;14.40;99.90;;;;;;4947564;28;20053;-87
2023/06/18 03:00:14;;;;;;;201.02;30.50;;;14.40;99.90;;;;;;4946201;28;20185;-87
2023/06/18 03:02:41;;;;;;;76.07;25.63;;;14.50;99.90;;;;;;4958035;28;20502;-87
2023/06/18 03:05:08;;;;;;;122.68;28.25;;;14.40;99.90;;;;;;4958365;28;20544;-87
2023/06/18 03:07:33;;;;;;;104.38;27.08;;;14.40;99.90;;;;;;4950982;28;20050;-87
2023/06/18 03:09:59;;;;;;;100.60;24.83;;;14.50;99.90;;;;;;4953146;28;20483;-88
2023/06/18 03:12:26;;;;;;;55.45;25.20;;;14.50;99.90;;;;;;4950979;28;20046;-87
2023/06/18 03:14:51;;;;;;;77.75;27.20;;;14.50;99.90;;;;;;4940772;28;20039;-87
2023/06/18 03:17:17;;;;;;;64.20;24.38;;;14.50;99.90;;;;;;4952832;28;20375;-87
2023/06/18 03:19:43;;;;;;;70.80;24.52;;;14.50;99.90;;;;;;4941366;28;20517;-88
2023/06/18 03:22:08;;;;;;;65.03;23.45;;;14.50;99.90;;;;;;4950189;28;20221;-87
2023/06/18 03:24:34;;;;;;;70.05;24.70;;;14.60;99.90;;;;;;4951339;28;20050;-87
2023/06/18 03:27:00;;;;;;;58.03;22.63;;;14.60;99.90;;;;;;4940974;28;20046;-87
2023/06/18 03:29:28;;;;;;;75.30;23.75;;;14.60;99.90;;;;;;4951712;28;20043;-87
2023/06/18 03:31:55;;;;;;;106.93;24.90;;;14.60;99.90;;;;;;4949286;28;20042;-87
2023/06/18 03:34:21;;;;;;;154.85;24.83;;;14.60;99.90;;;;;;4945568;28;20545;-88
2023/06/18 03:36:48;;;;;;;198.90;27.90;;;14.60;99.90;;;;;;4948844;28;20121;-88
2023/06/18 03:39:15;;;;;;;127.25;25.55;;;14.70;99.90;;;;;;4941089;28;20043;-88
2023/06/18 03:41:41;;;;;;;127.55;26.10;;;14.60;99.90;;;;;;4957496;28;20050;-88
2023/06/18 03:44:07;;;;;;;94.35;26.15;;;14.70;99.90;;;;;;4957898;28;20532;-87
2023/06/18 03:46:33;;;;;;;218.90;29.20;;;14.70;99.90;;;;;;4957907;28;20050;-87
2023/06/18 03:48:59;;;;;;;105.60;26.25;;;14.70;99.90;;;;;;4942631;28;20336;-87
2023/06/18 03:51:26;;;;;;;139.07;28.00;;;14.70;99.90;;;;;;4939103;28;20141;-86
2023/06/18 03:53:51;;;;;;;346.60;30.85;;;14.70;99.90;;;;;;4953282;28;20070;-87
2023/06/18 03:56:18;;;;;;;133.45;25.35;;;14.70;99.90;;;;;;4949816;28;20051;-88
2023/06/18 03:58:44;;;;;;;209.52;27.77;;;14.70;99.90;;;;;;4951394;28;20046;-88
2023/06/18 04:01:10;;;;;;;100.07;25.10;;;14.70;99.90;;;;;;4939137;28;20050;-88
2023/06/18 04:03:37;;;;;;;86.63;23.48;;;14.70;99.90;;;;;;4941507;28;20050;-88
2023/06/18 04:06:03;;;;;;;192.23;28.13;;;14.80;99.90;;;;;;4941108;28;20046;-87
2023/06/18 04:08:29;;;;;;;149.05;27.30;;;14.80;99.90;;;;;;4951606;28;20046;-87
2023/06/18 04:10:55;;;;;;;161.40;26.02;;;14.80;99.90;;;;;;4938060;28;20478;-87
2023/06/18 04:13:22;;;;;;;95.95;24.48;;;14.90;99.90;;;;;;4944001;28;20042;-87
2023/06/18 04:15:48;;;;;;;243.15;32.92;;;14.90;99.90;;;;;;4948052;28;20078;-88
2023/06/18 04:18:14;;;;;;;94.80;23.95;;;15.00;99.90;;;;;;4957360;28;20143;-87
2023/06/18 04:20:39;;;;;;;61.53;23.80;;;15.10;99.90;;;;;;4948462;28;20042;-88
2023/06/18 04:23:06;;;;;;;115.50;26.13;;;15.10;99.90;;;;;;4951739;28;20046;-88
2023/06/18 04:25:32;;;;;;;108.50;25.02;;;15.10;99.90;;;;;;4938449;28;20053;-87
2023/06/18 04:27:58;;;;;;;110.13;26.38;;;15.20;99.90;;;;;;4953861;28;20038;-87
2023/06/18 04:30:24;;;;;;;62.72;23.38;;;15.30;99.90;;;;;;4957349;28;20043;-88
2023/06/18 04:32:50;;;;;;;108.30;24.95;;;15.30;99.90;;;;;;4959376;28;20042;-88
2023/06/18 04:35:16;;;;;;;64.47;22.17;;;15.30;99.90;;;;;;4947953;28;20061;-88
2023/06/18 04:37:41;;;;;;;60.42;20.55;;;15.40;99.90;;;;;;4941570;28;20052;-88
2023/06/18 04:40:08;;;;;;;86.03;19.73;;;15.40;99.90;;;;;;4947846;28;20491;-88
2023/06/18 04:42:35;;;;;;;148.02;23.30;;;15.50;99.90;;;;;;4940882;28;20085;-88
2023/06/18 04:45:01;;;;;;;100.75;22.40;;;15.50;99.90;;;;;;4957399;28;20352;-88
2023/06/18 04:47:27;;;;;;;79.90;23.23;;;15.60;99.90;;;;;;4956604;28;20101;-87
2023/06/18 04:49:53;;;;;;;104.07;24.80;;;15.60;99.90;;;;;;4964459;28;20051;-88
2023/06/18 04:52:18;;;;;;;58.30;21.23;;;15.60;99.90;;;;;;4969543;28;20056;-87
2023/06/18 04:54:44;;;;;;;67.97;20.55;;;15.70;99.90;;;;;;4949005;28;20126;-88
2023/06/18 04:57:10;;;;;;;55.90;21.38;;;15.70;99.90;;;;;;4950296;28;20061;-88
2023/06/18 04:59:38;;;;;;;45.75;18.33;;;15.70;99.90;;;;;;4951603;28;20038;-88
2023/06/18 05:02:04;;;;;;;47.70;17.83;;;15.70;99.90;;;;;;4945182;28;20081;-88
2023/06/18 05:04:30;;;;;;;23.05;17.48;;;15.70;99.90;;;;;;4955381;28;20054;-88
2023/06/18 05:06:56;;;;;;;33.92;16.15;;;15.80;99.90;;;;;;4953033;28;20046;-86
2023/06/18 05:09:22;;;;;;;49.97;17.85;;;15.90;99.90;;;;;;4951505;28;20046;-88
2023/06/18 05:11:48;;;;;;;78.32;18.15;;;15.90;99.90;;;;;;4946654;28;20030;-87
2023/06/18 05:14:14;;;;;;;52.55;17.13;;;15.90;99.90;;;;;;4949098;28;20204;-87
2023/06/18 05:16:40;;;;;;;37.00;19.60;;;16.00;99.90;;;;;;4955521;28;20133;-87
2023/06/18 05:19:06;;;;;;;19.20;16.40;;;16.00;99.90;;;;;;4971835;28;20053;-88
2023/06/18 05:21:31;;;;;;;18.90;16.25;;;16.00;99.90;;;;;;4942540;28;20057;-88
2023/06/18 05:23:57;;;;;;;24.75;17.15;;;16.10;99.90;;;;;;4953222;28;20511;-88
2023/06/18 05:26:23;;;;;;;18.30;15.55;;;16.20;99.90;;;;;;4952499;28;20042;-88
2023/06/18 05:28:49;;;;;;;17.77;15.80;;;16.30;99.90;;;;;;4954806;28;20189;-88
2023/06/18 05:31:15;;;;;;;17.50;15.00;;;16.30;99.90;;;;;;4953366;28;20045;-88
2023/06/18 05:33:41;;;;;;;22.98;16.88;;;16.40;99.90;;;;;;4955350;28;20046;-89
2023/06/18 05:36:07;;;;;;;23.13;17.30;;;16.40;99.90;;;;;;4953441;28;20054;-89
2023/06/18 05:38:33;;;;;;;16.83;15.10;;;16.40;99.90;;;;;;4955476;28;20049;-89
2023/06/18 05:40:58;;;;;;;17.20;15.40;;;16.50;99.90;;;;;;4951151;28;20055;-89
2023/06/18 05:43:24;;;;;;;17.75;14.90;;;16.60;99.90;;;;;;4949517;28;20048;-90
2023/06/18 05:45:51;;;;;;;16.15;14.45;;;16.70;99.90;;;;;;4943076;28;20058;-89
2023/06/18 05:48:17;;;;;;;18.50;14.35;;;16.80;99.90;;;;;;4947330;28;20053;-94
2023/06/18 05:50:46;;;;;;;15.52;13.38;;;16.80;99.90;;;;;;4942418;28;20269;-91
2023/06/18 05:53:12;;;;;;;15.85;13.40;;;16.90;99.90;;;;;;4953507;28;20054;-94
2023/06/18 05:55:41;;;;;;;16.33;13.50;;;17.00;99.90;;;;;;4955192;28;20038;-93
2023/06/18 05:58:07;;;;;;;17.13;14.02;;;17.10;99.90;;;;;;4952353;28;20045;-94
2023/06/18 06:00:33;;;;;;;15.32;13.20;;;17.20;99.90;;;;;;4944993;28;20152;-92
2023/06/18 06:02:59;;;;;;;16.98;13.75;;;17.20;99.90;;;;;;4953855;28;20038;-93
2023/06/18 06:05:25;;;;;;;19.67;14.38;;;17.30;99.90;;;;;;4954951;28;20050;-93
2023/06/18 06:07:50;;;;;;;16.88;14.30;;;17.40;99.90;;;;;;4950813;28;20555;-94
2023/06/18 06:10:21;;;;;;;16.15;13.70;;;17.50;99.90;;;;;;4949886;28;20097;-92
2023/06/18 06:12:47;;;;;;;18.33;13.85;;;17.60;99.90;;;;;;4956031;28;20050;-94
2023/06/18 06:15:13;;;;;;;15.10;13.20;;;17.70;99.90;;;;;;4953874;28;20089;-95
2023/06/18 06:17:39;;;;;;;14.05;12.55;;;17.80;99.90;;;;;;4953535;28;20053;-95
2023/06/18 06:20:05;;;;;;;16.52;13.25;;;17.90;99.90;;;;;;4954459;28;20057;-94
2023/06/18 06:22:31;;;;;;;15.68;13.27;;;18.00;99.90;;;;;;4955756;28;20105;-94
2023/06/18 06:24:58;;;;;;;16.23;13.48;;;18.10;99.90;;;;;;4949491;28;20042;-92
2023/06/18 06:27:37;;;;;;;14.65;12.82;;;18.10;99.90;;;;;;4938797;28;20039;-93
2023/06/18 06:30:07;;;;;;;15.10;13.38;;;18.20;99.90;;;;;;4955994;28;20042;-92
2023/06/18 06:32:35;;;;;;;14.93;13.27;;;18.20;99.90;;;;;;4951448;28;20046;-95
2023/06/18 06:35:02;;;;;;;16.23;14.52;;;18.30;99.90;;;;;;4953689;28;20046;-94
2023/06/18 06:37:29;;;;;;;14.45;12.75;;;18.30;99.90;;;;;;4945154;28;20490;-93
2023/06/18 06:39:56;;;;;;;20.52;14.50;;;18.40;99.90;;;;;;4943242;28;20042;-95
2023/06/18 06:42:22;;;;;;;16.80;14.38;;;18.50;99.90;;;;;;4950666;28;20129;-96
2023/06/18 06:44:48;;;;;;;16.15;13.70;;;18.50;99.90;;;;;;4944477;28;20046;-95
2023/06/18 06:47:26;;;;;;;18.25;14.65;;;18.60;99.90;;;;;;4942879;28;20090;-96
2023/06/18 06:49:57;;;;;;;15.20;13.13;;;18.70;99.90;;;;;;4955637;28;20406;-95
2023/06/18 06:52:26;;;;;;;14.95;13.18;;;18.70;99.90;;;;;;4952573;28;20045;-93
2023/06/18 06:55:11;;;;;;;16.58;13.48;;;18.80;99.90;;;;;;4937552;28;20138;-91
2023/06/18 06:57:37;;;;;;;14.60;13.10;;;18.80;99.90;;;;;;4940572;28;20043;-89
2023/06/18 07:00:06;;;;;;;17.60;13.98;;;19.00;99.90;;;;;;4953199;28;20054;-88
2023/06/18 07:02:41;;;;;;;16.25;13.75;;;19.10;99.90;;;;;;4948769;28;20470;-89
2023/06/18 07:05:07;;;;;;;17.48;14.63;;;19.20;99.90;;;;;;4950382;28;20558;-88
2023/06/18 07:07:36;;;;;;;15.27;12.70;;;19.20;99.90;;;;;;4947038;28;20046;-89
2023/06/18 07:10:05;;;;;;;15.70;12.90;;;19.40;99.90;;;;;;4951673;28;20053;-91
2023/06/18 07:12:31;;;;;;;16.52;12.88;;;19.50;99.90;;;;;;4938866;28;20054;-90
2023/06/18 07:14:57;;;;;;;21.20;13.95;;;19.60;99.90;;;;;;4954955;28;20042;-90
2023/06/18 07:17:29;;;;;;;17.17;14.05;;;19.60;99.90;;;;;;4946840;28;20050;-91
2023/06/18 07:19:58;;;;;;;19.13;14.25;;;19.70;99.90;;;;;;4940369;28;20046;-89
2023/06/18 07:22:30;;;;;;;15.45;12.68;;;19.90;99.90;;;;;;4945780;28;20049;-90
2023/06/18 07:24:58;;;;;;;19.75;14.52;;;19.90;99.90;;;;;;4953634;28;20108;-90
2023/06/18 07:27:24;;;;;;;16.60;13.65;;;20.00;99.90;;;;;;4953870;28;20057;-91
2023/06/18 07:29:50;;;;;;;20.17;14.18;;;20.00;99.90;;;;;;4955656;28;20125;-89
2023/06/18 07:32:17;;;;;;;19.27;14.70;;;20.10;99.90;;;;;;4955969;28;20469;-92
2023/06/18 07:34:42;;;;;;;17.40;14.55;;;20.10;99.90;;;;;;4951437;28;20050;-92
2023/06/18 07:37:11;;;;;;;20.63;14.35;;;20.00;99.90;;;;;;4946970;28;20051;-91
2023/06/18 07:39:37;;;;;;;22.45;15.25;;;20.10;99.90;;;;;;4946138;28;20046;-92
2023/06/18 07:42:03;;;;;;;16.98;14.35;;;20.30;99.90;;;;;;4946251;28;20041;-92
2023/06/18 07:44:31;;;;;;;100.43;18.63;;;20.40;99.90;;;;;;4940813;28;20049;-90
2023/06/18 07:47:00;;;;;;;21.20;12.90;;;20.60;99.90;;;;;;4952029;28;20138;-92
2023/06/18 07:49:36;;;;;;;17.27;13.43;;;20.70;99.90;;;;;;4950276;28;20051;-93
2023/06/18 07:52:06;;;;;;;16.83;13.35;;;20.90;99.90;;;;;;4948904;28;20054;-93
2023/06/18 07:54:34;;;;;;;17.98;13.35;;;21.10;99.90;;;;;;4951736;28;20486;-90
2023/06/18 07:57:18;;;;;;;17.15;12.80;;;21.20;99.90;;;;;;4956554;28;20070;-92
2023/06/18 07:59:47;;;;;;;15.65;13.13;;;21.30;99.90;;;;;;4970494;28;20481;-93
2023/06/18 08:02:13;;;;;;;15.82;12.20;;;21.40;99.90;;;;;;4947914;28;20146;-93
2023/06/18 08:04:51;;;;;;;25.75;13.93;;;21.60;99.90;;;;;;4954702;28;20050;-93
2023/06/18 08:07:17;;;;;;;22.33;13.73;;;21.70;99.90;;;;;;4957721;28;20059;-95
2023/06/18 08:09:43;;;;;;;16.00;12.65;;;21.70;99.90;;;;;;4958088;28;20070;-94
2023/06/18 08:12:09;;;;;;;16.00;13.10;;;21.80;99.90;;;;;;4955311;28;20049;-94
2023/06/18 08:14:34;;;;;;;16.08;12.57;;;22.00;99.90;;;;;;4959459;28;20046;-94
2023/06/18 08:17:00;;;;;;;18.63;12.40;;;22.10;99.90;;;;;;4960203;28;20046;-93
2023/06/18 08:19:26;;;;;;;15.25;13.10;;;22.20;99.90;;;;;;4956009;28;20057;-94
2023/06/18 08:22:03;;;;;;;14.80;12.55;;;22.30;99.90;;;;;;4956229;28;20038;-93
2023/06/18 08:24:29;;;;;;;18.02;12.82;;;22.40;99.90;;;;;;4955463;28;20057;-94
2023/06/18 08:27:05;;;;;;;17.10;13.15;;;22.50;99.90;;;;;;4959441;28;20042;-96
2023/06/18 08:29:34;;;;;;;20.23;11.98;;;22.70;99.90;;;;;;4957232;28;20046;-92
2023/06/18 08:32:04;;;;;;;16.83;12.88;;;22.80;99.90;;;;;;4951544;28;20121;-94
2023/06/18 08:34:32;;;;;;;16.35;11.88;;;22.90;99.90;;;;;;4954797;28;20495;-93
2023/06/18 08:36:58;;;;;;;16.27;11.70;;;22.90;99.90;;;;;;4949979;28;20331;-95
2023/06/18 08:39:24;;;;;;;13.05;11.23;;;23.10;99.90;;;;;;4944623;28;20049;-95
2023/06/18 08:41:50;;;;;;;17.30;11.13;;;23.20;99.90;;;;;;4957430;28;20054;-94
2023/06/18 08:44:16;;;;;;;17.13;10.68;;;23.30;99.90;;;;;;4947473;28;20509;-95
2023/06/18 08:46:44;;;;;;;13.82;11.60;;;23.50;99.90;;;;;;4960063;28;20051;-95
2023/06/18 08:49:14;;;;;;;15.43;10.43;;;23.60;99.90;;;;;;4947264;28;20038;-93
2023/06/18 08:51:42;;;;;;;14.80;11.18;;;23.70;99.90;;;;;;4959496;28;20505;-93
2023/06/18 08:54:13;;;;;;;16.42;11.30;;;23.80;99.90;;;;;;4943246;28;20049;-92
2023/06/18 08:56:45;;;;;;;17.50;11.73;;;24.00;99.90;;;;;;4948001;28;20046;-93
2023/06/18 08:59:11;;;;;;;14.88;10.75;;;24.00;99.90;;;;;;4958223;28;20101;-94
2023/06/18 09:01:38;;;;;;;15.18;9.98;;;24.10;99.90;;;;;;4956806;28;20121;-95
2023/06/18 09:04:06;;;;;;;15.85;10.73;;;24.30;99.90;;;;;;4951752;28;20046;-94
2023/06/18 09:06:32;;;;;;;12.82;9.40;;;24.40;99.90;;;;;;4959243;28;20038;-94
2023/06/18 09:09:00;;;;;;;12.52;9.27;;;24.60;99.90;;;;;;4952729;28;20484;-95
2023/06/18 09:11:26;;;;;;;19.90;10.25;;;24.70;99.90;;;;;;4946542;28;20545;-93
2023/06/18 09:13:53;;;;;;;15.82;9.77;;;24.80;99.90;;;;;;4955791;28;20054;-93
2023/06/18 09:16:19;;;;;;;11.13;8.90;;;24.80;99.90;;;;;;4947764;28;20050;-92
2023/06/18 09:18:46;;;;;;;15.30;9.05;;;25.00;99.90;;;;;;4955730;28;20482;-92
2023/06/18 09:21:41;;;;;;;12.00;9.27;;;25.10;99.90;;;;;;4955181;28;20097;-95
2023/06/18 09:24:26;;;;;;;17.65;8.52;;;25.30;99.90;;;;;;4957855;28;20121;-93
2023/06/18 09:27:01;;;;;;;14.23;7.68;;;25.50;99.90;;;;;;4954751;28;20090;-95
2023/06/18 09:30:17;;;;;;;12.43;7.60;;;25.70;99.90;;;;;;4954482;28;20093;-93
2023/06/18 09:36:57;;;;;;;11.77;8.10;;;25.90;99.90;;;;;;4909751;28;20546;-93
2023/06/18 09:39:28;;;;;;;12.27;7.63;;;26.10;99.90;;;;;;4951129;28;20038;-92
2023/06/18 09:42:23;;;;;;;10.63;6.93;;;26.10;99.90;;;;;;4955756;28;20052;-96
2023/06/18 09:44:57;;;;;;;11.18;7.47;;;26.20;99.90;;;;;;4947454;28;20062;-93
2023/06/18 09:47:23;;;;;;;10.32;7.22;;;26.30;99.90;;;;;;4956071;28;20203;-93
2023/06/18 09:49:49;;;;;;;9.50;6.45;;;26.30;99.90;;;;;;4940016;28;20134;-94
2023/06/18 09:52:18;;;;;;;10.35;7.13;;;26.30;99.90;;;;;;4958438;28;20081;-94
2023/06/18 09:54:47;;;;;;;13.48;6.40;;;26.40;99.90;;;;;;4949540;28;20078;-93
2023/06/18 09:57:15;;;;;;;11.98;6.43;;;26.60;99.90;;;;;;4975045;23;20066;-93
2023/06/18 09:59:41;;;;;;;10.25;6.15;;;26.80;99.90;;;;;;4932100;29;20055;-93
2023/06/18 10:02:13;;;;;;;7.68;5.65;;;26.90;99.90;;;;;;4924764;28;20051;-92
2023/06/18 10:04:53;;;;;;;10.43;5.43;;;27.10;99.90;;;;;;4953731;28;20050;-90
2023/06/18 10:07:20;;;;;;;9.38;4.80;;;27.20;99.90;;;;;;4939066;28;20122;-95
2023/06/18 10:09:49;;;;;;;6.53;5.13;;;27.30;99.90;;;;;;4926266;28;20047;-94
2023/06/18 10:12:21;;;;;;;10.73;5.40;;;27.50;99.90;;;;;;4939003;28;20402;-95
2023/06/18 10:14:47;;;;;;;;;;;27.60;99.90;;;;;;4929994;28;20446;-96
2023/06/18 10:17:34;;;;;;;8.77;4.97;;;27.60;99.90;;;;;;4936587;28;19921;-96
2023/06/18 10:20:50;;;;;;;7.72;4.63;;;27.70;99.90;;;;;;4940501;28;20078;-96
2023/06/18 10:26:47;;;;;;;6.72;4.40;;;27.80;98.70;;;;;;4908069;29;20064;-96
2023/06/18 10:59:04;;;;;;;6.78;4.25;;;28.30;90.30;;;;;;4903863;29;20074;-96
2023/06/18 11:02:27;;;;;;;;;;;;;;;;;;;;;
2023/06/18 11:05:51;;;;;;;9.73;4.78;;;28.50;87.50;;;;;;4930577;29;20547;-96
2023/06/18 11:39:39;;;;;;;11.98;4.53;;;28.40;84.10;;;;;;4961192;28;20398;-90
2023/06/18 11:42:51;;;;;;;8.57;4.20;;;28.30;84.70;;;;;;4924426;29;20047;-90
2023/06/18 11:46:07;;;;;;;8.35;4.03;;;28.40;80.90;;;;;;4913908;29;20051;-91
2023/06/18 11:48:54;;;;;;;8.32;4.50;;;28.60;80.00;;;;;;4928273;28;20053;-92
2023/06/18 11:51:28;;;;;;;7.68;4.57;;;28.70;80.00;;;;;;4927602;28;20600;-91
2023/06/18 11:53:58;;;;;;;9.30;4.32;;;28.90;80.30;;;;;;4929087;28;20053;-91
2023/06/18 11:57:29;;;;;;;7.15;4.13;;;29.00;79.90;;;;;;4925312;28;20054;-90
2023/06/18 12:07:41;;;;;;;9.38;3.90;;;29.30;75.00;;;;;;4904258;23;20043;-91
2023/06/18 12:10:56;;;;;;;6.53;3.90;;;29.40;76.00;;;;;;4879724;28;20050;-90
2023/06/18 12:13:47;;;;;;;10.02;4.40;;;29.50;74.10;;;;;;4958394;28;20043;-91
2023/06/18 12:19:42;;;;;;;;;;;;;;;;;;;;;
2023/06/18 12:22:35;;;;;;;7.97;4.40;;;29.70;75.30;;;;;;4961655;28;20051;-91
2023/06/18 12:25:43;;;;;;;6.93;4.15;;;29.50;74.70;;;;;;4969922;28;20053;-92
2023/06/18 12:32:30;;;;;;;8.40;4.60;;;29.70;76.00;;;;;;4905639;28;20042;-91
2023/06/18 12:38:50;;;;;;;7.10;4.10;;;29.90;74.90;;;;;;4955395;28;20058;-91
2023/06/18 12:42:12;;;;;;;8.00;4.50;;;30.00;73.50;;;;;;4958324;28;20099;-92
2023/06/18 14:24:58;;;;;;;8.30;4.47;;;29.50;73.00;;;;;;2869106;23;19926;31
2023/06/18 14:27:50;;;;;;;11.05;4.43;;;29.50;71.40;;;;;;4811365;29;20062;-89
2023/06/18 14:30:43;;;;;;;7.90;4.38;;;29.60;73.00;;;;;;4818036;29;20078;-89
2023/06/18 14:33:17;;;;;;;8.02;4.30;;;29.60;73.40;;;;;;4823127;29;20062;-87
2023/06/18 14:36:36;;;;;;;6.45;4.15;;;29.50;74.50;;;;;;4836140;29;20085;-90
2023/06/18 14:39:35;;;;;;;7.47;4.07;;;29.40;74.00;;;;;;4756170;29;20088;-90
2023/06/18 14:45:29;;;;;;;8.52;4.03;;;29.20;73.20;;;;;;4812352;23;20135;-88
2023/06/18 14:47:55;;;;;;;6.82;4.07;;;29.10;74.80;;;;;;4849049;29;20080;-88
2023/06/18 14:51:42;;;;;;;16.85;4.30;;;29.10;75.40;;;;;;4852038;29;20503;-90
2023/06/18 14:58:11;;;;;;;8.95;4.43;;;29.10;74.80;;;;;;4877009;29;20057;-90
2023/06/18 15:13:39;;;;;;;11.18;4.50;;;28.80;74.20;;;;;;4892382;29;20413;-89
2023/06/18 15:16:13;;;;;;;10.25;4.20;;;28.80;74.60;;;;;;4877162;29;20044;-87
2023/06/18 15:25:41;;;;;;;;;;;;;;;;;;;;;
2023/06/18 15:31:02;;;;;;;;;;;28.80;73.30;;;;;;4884873;23;20061;-88
2023/06/18 15:34:09;;;;;;;6.22;3.88;;;28.80;73.40;;;;;;4845257;29;19928;-89
2023/06/18 15:36:35;;;;;;;10.52;4.30;;;28.80;73.20;;;;;;4825601;29;20102;-91
2023/06/18 15:39:10;;;;;;;11.95;4.10;;;28.80;73.20;;;;;;4845403;29;20131;-87
2023/06/18 15:41:51;;;;;;;10.70;4.35;;;28.80;73.20;;;;;;4857918;29;20061;-86
2023/06/18 15:44:27;;;;;;;9.50;4.00;;;28.70;73.80;;;;;;4846984;29;20051;-87
2023/06/18 15:46:53;;;;;;;7.30;4.28;;;28.40;73.00;;;;;;4855687;29;20048;-86
2023/06/18 15:49:18;;;;;;;6.38;4.07;;;28.50;73.30;;;;;;4845666;29;20092;-85
2023/06/18 15:51:44;;;;;;;6.88;4.43;;;28.50;73.10;;;;;;4855742;29;20470;-86
2023/06/18 15:54:11;;;;;;;7.07;3.80;;;28.40;73.20;;;;;;4860004;29;20139;-87
2023/06/18 15:56:45;;;;;;;8.85;3.67;;;28.40;72.80;;;;;;4863782;23;20465;-88
2023/06/18 16:00:12;;;;;;;;;;;;;;;;;;;;;
2023/06/18 16:02:57;;;;;;;8.93;3.90;;;28.40;73.60;;;;;;4883549;29;20063;-88
2023/06/18 16:22:31;;;;;;;7.68;3.78;;;28.40;71.10;;;;;;4916286;23;20523;-95
2023/06/18 16:25:39;;;;;;;10.73;4.60;;;28.40;70.60;;;;;;4877962;29;20171;-96
2023/06/18 16:32:23;;;;;;;7.20;4.20;;;28.40;70.80;;;;;;4836301;29;20493;-95
2023/06/18 16:35:01;;;;;;;8.32;3.80;;;28.30;70.90;;;;;;4880960;28;20031;-96
2023/06/18 16:37:38;;;;;;;6.18;4.07;;;28.30;70.70;;;;;;4878424;29;20061;-96
2023/06/18 16:40:16;;;;;;;6.03;3.97;;;28.20;70.90;;;;;;4877331;29;20057;-96
2023/06/18 16:42:45;;;;;;;8.60;4.07;;;28.10;70.70;;;;;;4863989;29;20112;-95
2023/06/18 16:45:11;;;;;;;7.20;4.15;;;28.00;71.20;;;;;;4847084;29;20053;-96
2023/06/18 16:47:36;;;;;;;7.28;4.32;;;28.00;71.10;;;;;;4849947;29;20052;-96
2023/06/18 16:50:03;;;;;;;5.85;4.00;;;27.90;71.00;;;;;;4876790;29;20056;-95
2023/06/18 16:52:32;;;;;;;6.90;4.05;;;27.80;71.20;;;;;;4851041;29;20120;-95
2023/06/18 16:54:58;;;;;;;6.80;3.83;;;27.70;71.20;;;;;;4871685;29;20044;-95